createdAt,value
2019-01-30T00:00:36.435Z,0.80
2019-01-30T00:03:05.306Z,0.80
2019-01-30T00:05:33.723Z,0.80
2019-01-30T00:08:02.195Z,0.80
2019-01-30T00:10:30.619Z,0.80
2019-01-30T00:12:59.092Z,0.80
2019-01-30T00:15:27.572Z,0.70
2019-01-30T00:17:55.991Z,0.70
2019-01-30T00:20:24.387Z,0.60
2019-01-30T00:22:52.807Z,0.60
2019-01-30T00:25:23.733Z,0.60
2019-01-30T00:27:51.367Z,0.60
2019-01-30T00:30:22.235Z,0.60
2019-01-30T00:32:50.662Z,0.60
2019-01-30T00:35:19.086Z,0.60
2019-01-30T00:37:47.509Z,0.60
2019-01-30T00:40:19.141Z,0.50
2019-01-30T00:42:47.807Z,0.50
2019-01-30T00:45:21.251Z,0.50
2019-01-30T00:47:49.656Z,0.50
2019-01-30T00:50:23.206Z,0.50
2019-01-30T00:52:51.904Z,0.50
2019-01-30T00:55:20.440Z,0.50
2019-01-30T00:57:48.872Z,0.40
2019-01-30T01:00:19.815Z,0.50
2019-01-30T01:02:48.361Z,0.40
2019-01-30T01:05:16.784Z,0.50
2019-01-30T01:07:45.640Z,0.50
2019-01-30T01:10:16.960Z,0.60
2019-01-30T01:12:45.644Z,0.50
2019-01-30T01:15:15.888Z,0.50
2019-01-30T01:17:44.384Z,0.50
2019-01-30T01:20:20.663Z,0.50
2019-01-30T01:22:49.175Z,0.40
2019-01-30T01:25:18.315Z,0.40
2019-01-30T01:27:47.106Z,0.30
2019-01-30T01:30:25.746Z,0.30
2019-01-30T01:32:54.063Z,0.30
2019-01-30T01:35:22.472Z,0.30
2019-01-30T01:37:50.997Z,0.20
2019-01-30T01:40:19.415Z,0.20
2019-01-30T01:42:47.900Z,0.20
2019-01-30T01:45:18.920Z,0.20
2019-01-30T01:48:08.201Z,0.10
2019-01-30T01:50:36.596Z,0.10
2019-01-30T01:53:05.067Z,0.10
2019-01-30T01:55:33.491Z,0.10
2019-01-30T01:58:01.899Z,0.10
2019-01-30T02:00:35.605Z,0.20
2019-01-30T02:03:00.516Z,0.20
2019-01-30T02:05:28.928Z,0.20
2019-01-30T02:07:57.430Z,0.20
2019-01-30T02:10:26.580Z,0.20
2019-01-30T02:12:54.989Z,0.20
2019-01-30T02:15:24.089Z,0.20
2019-01-30T02:17:53.183Z,0.10
2019-01-30T02:20:30.095Z,0.20
2019-01-30T02:22:58.512Z,0.20
2019-01-30T02:25:26.991Z,0.10
2019-01-30T02:27:55.484Z,0.10
2019-01-30T02:30:26.126Z,0.10
2019-01-30T02:32:54.970Z,0.20
2019-01-30T02:35:23.675Z,0.10
2019-01-30T02:37:52.059Z,0.10
2019-01-30T02:40:21.839Z,0.10
2019-01-30T02:42:50.234Z,0.20
2019-01-30T02:45:26.154Z,0.30
2019-01-30T02:47:54.647Z,0.30
2019-01-30T02:50:23.149Z,0.20
2019-01-30T02:52:51.577Z,0.10
2019-01-30T02:55:20.634Z,0.10
2019-01-30T02:57:49.036Z,0.10
2019-01-30T03:00:23.299Z,0.20
2019-01-30T03:02:51.691Z,0.20
2019-01-30T03:05:20.270Z,0.10
2019-01-30T03:07:48.694Z,0.20
2019-01-30T03:10:21.319Z,0.20
2019-01-30T03:12:49.796Z,0.20
2019-01-30T03:15:19.649Z,0.10
2019-01-30T03:17:48.136Z,0.10
2019-01-30T03:20:21.424Z,0.10
2019-01-30T03:22:50.139Z,0.10
2019-01-30T03:25:20.531Z,0.00
2019-01-30T03:27:48.927Z,0.10
2019-01-30T03:30:19.600Z,0.10
2019-01-30T03:32:48.066Z,0.10
2019-01-30T03:35:16.544Z,0.10
2019-01-30T03:37:45.023Z,0.10
2019-01-30T03:40:19.054Z,0.10
2019-01-30T03:42:47.555Z,0.10
2019-01-30T03:45:21.436Z,0.20
2019-01-30T03:47:49.896Z,0.20
2019-01-30T03:50:18.322Z,0.20
2019-01-30T03:52:46.724Z,0.20
2019-01-30T03:55:16.963Z,0.20
2019-01-30T03:57:45.376Z,0.20
2019-01-30T04:00:16.475Z,0.10
2019-01-30T04:02:44.884Z,0.10
2019-01-30T04:05:13.356Z,0.10
2019-01-30T04:07:41.767Z,0.10
2019-01-30T04:10:21.240Z,0.20
2019-01-30T04:12:49.707Z,0.20
2019-01-30T04:15:18.247Z,0.20
2019-01-30T04:17:46.740Z,0.30
2019-01-30T04:20:19.848Z,0.30
2019-01-30T04:22:48.696Z,0.30
2019-01-30T04:25:17.294Z,0.30
2019-01-30T04:27:45.694Z,0.30
2019-01-30T04:30:19.176Z,0.30
2019-01-30T04:32:47.615Z,0.30
2019-01-30T04:35:16.097Z,0.30
2019-01-30T04:37:44.572Z,0.30
2019-01-30T04:40:17.653Z,0.30
2019-01-30T04:42:46.083Z,0.30
2019-01-30T04:45:17.383Z,0.30
2019-01-30T04:47:45.868Z,0.30
2019-01-30T04:50:14.328Z,0.30
2019-01-30T04:52:42.749Z,0.30
2019-01-30T04:55:11.503Z,0.30
2019-01-30T04:57:39.920Z,0.40
2019-01-30T05:00:11.387Z,0.40
2019-01-30T05:02:39.806Z,0.40
2019-01-30T05:05:10.349Z,0.30
2019-01-30T05:07:38.861Z,0.30
2019-01-30T05:10:10.310Z,0.30
2019-01-30T05:12:38.804Z,0.30
2019-01-30T05:15:10.499Z,0.30
2019-01-30T05:17:38.907Z,0.20
2019-01-30T05:20:10.329Z,0.20
2019-01-30T05:22:38.795Z,0.20
2019-01-30T05:25:09.064Z,0.20
2019-01-30T05:27:37.809Z,0.20
2019-01-30T05:30:15.208Z,0.20
2019-01-30T05:32:43.623Z,0.20
2019-01-30T05:35:12.041Z,0.20
2019-01-30T05:37:40.445Z,0.20
2019-01-30T05:40:14.715Z,0.20
2019-01-30T05:42:43.190Z,0.20
2019-01-30T05:45:14.144Z,0.20
2019-01-30T05:47:42.857Z,0.20
2019-01-30T05:50:12.007Z,0.20
2019-01-30T05:52:40.408Z,0.20
2019-01-30T05:55:11.161Z,0.20
2019-01-30T05:57:39.564Z,0.20
2019-01-30T06:00:13.845Z,0.20
2019-01-30T06:02:42.327Z,0.20
2019-01-30T06:05:11.049Z,0.20
2019-01-30T06:07:39.511Z,0.30
2019-01-30T06:10:09.371Z,0.30
2019-01-30T06:12:38.048Z,0.30
2019-01-30T06:15:09.867Z,0.30
2019-01-30T06:17:38.275Z,0.30
2019-01-30T06:20:09.781Z,0.30
2019-01-30T06:22:38.243Z,0.40
2019-01-30T06:25:08.808Z,0.30
2019-01-30T06:27:37.229Z,0.40
2019-01-30T06:30:09.048Z,0.40
2019-01-30T06:32:37.451Z,0.40
2019-01-30T06:35:06.336Z,0.40
2019-01-30T06:37:35.303Z,0.50
2019-01-30T06:40:05.424Z,0.50
2019-01-30T06:42:34.313Z,0.50
2019-01-30T06:45:02.720Z,0.50
2019-01-30T06:47:31.132Z,0.60
2019-01-30T06:49:59.544Z,0.60
2019-01-30T06:52:27.972Z,0.50
2019-01-30T06:54:56.404Z,0.50
2019-01-30T06:57:24.812Z,0.60
2019-01-30T06:59:53.239Z,0.60
2019-01-30T07:02:32.011Z,0.60
2019-01-30T07:04:56.375Z,0.60
2019-01-30T07:07:24.779Z,0.60
2019-01-30T07:09:53.192Z,0.60
2019-01-30T07:12:21.612Z,0.70
2019-01-30T07:14:52.925Z,0.70
2019-01-30T07:17:21.340Z,0.70
2019-01-30T07:19:50.104Z,0.80
2019-01-30T07:22:18.511Z,0.80
2019-01-30T07:24:47.004Z,0.70
2019-01-30T07:27:15.479Z,0.70
2019-01-30T07:29:43.911Z,0.70
2019-01-30T07:32:12.616Z,0.80
2019-01-30T07:34:41.035Z,0.80
2019-01-30T07:37:09.439Z,0.80
2019-01-30T07:39:37.867Z,0.80
2019-01-30T07:42:06.358Z,0.80
2019-01-30T07:44:34.761Z,0.80
2019-01-30T07:47:03.180Z,0.80
2019-01-30T07:49:31.618Z,0.80
2019-01-30T07:52:00.098Z,0.90
2019-01-30T07:54:28.503Z,1.00
2019-01-30T07:56:56.935Z,1.00
2019-01-30T07:59:25.334Z,1.00
2019-01-30T08:01:53.757Z,1.10
2019-01-30T08:04:22.207Z,1.00
2019-01-30T08:06:50.667Z,0.90
2019-01-30T08:09:19.067Z,1.00
2019-01-30T08:11:47.485Z,1.00
2019-01-30T08:14:15.895Z,1.00
2019-01-30T08:16:44.289Z,1.00
2019-01-30T08:19:12.702Z,1.00
2019-01-30T08:21:41.111Z,1.10
2019-01-30T08:24:09.530Z,1.10
2019-01-30T08:26:37.976Z,1.10
2019-01-30T08:29:06.550Z,1.10
2019-01-30T08:31:35.091Z,1.10
2019-01-30T08:34:03.519Z,1.20
2019-01-30T08:36:31.923Z,1.10
2019-01-30T08:39:00.372Z,1.00
2019-01-30T08:41:28.782Z,1.10
2019-01-30T08:43:58.076Z,1.10
2019-01-30T08:46:26.607Z,1.20
2019-01-30T08:48:55.039Z,1.20
2019-01-30T08:51:23.436Z,1.20
2019-01-30T08:53:51.868Z,1.20
2019-01-30T08:56:20.291Z,1.20
2019-01-30T08:58:48.719Z,1.20
2019-01-30T09:01:17.295Z,1.10
2019-01-30T09:03:45.739Z,1.10
2019-01-30T09:06:14.124Z,1.00
2019-01-30T09:08:42.560Z,1.10
2019-01-30T09:11:10.973Z,1.20
2019-01-30T09:13:39.456Z,1.20
2019-01-30T09:16:07.875Z,1.30
2019-01-30T09:18:36.540Z,1.30
2019-01-30T09:21:05.016Z,1.40
2019-01-30T09:23:33.466Z,1.40
2019-01-30T09:26:01.887Z,1.40
2019-01-30T09:28:30.280Z,1.40
2019-01-30T09:30:58.702Z,1.40
2019-01-30T09:33:27.127Z,1.40
2019-01-30T09:35:55.528Z,1.50
2019-01-30T09:38:24.062Z,1.50
2019-01-30T09:40:52.475Z,1.50
2019-01-30T09:43:20.944Z,1.60
2019-01-30T09:45:49.456Z,1.50
2019-01-30T09:48:18.308Z,1.60
2019-01-30T09:50:46.778Z,1.70
2019-01-30T09:53:15.293Z,1.80
2019-01-30T09:55:43.700Z,1.70
2019-01-30T09:58:12.444Z,1.80
2019-01-30T10:00:40.903Z,1.80
2019-01-30T10:03:09.333Z,1.80
2019-01-30T10:05:37.751Z,1.80
2019-01-30T10:08:06.824Z,1.90
2019-01-30T10:10:40.499Z,1.90
2019-01-30T10:13:10.027Z,1.90
2019-01-30T10:15:41.171Z,1.90
2019-01-30T10:18:10.300Z,1.90
2019-01-30T10:20:40.064Z,1.90
2019-01-30T10:23:08.827Z,2.00
2019-01-30T10:25:37.244Z,2.00
2019-01-30T10:28:15.861Z,2.00
2019-01-30T10:30:39.015Z,2.10
2019-01-30T10:33:07.523Z,2.10
2019-01-30T10:35:35.996Z,2.00
2019-01-30T10:38:04.950Z,1.90
2019-01-30T10:40:33.456Z,2.00
2019-01-30T10:43:02.327Z,2.00
2019-01-30T10:45:30.732Z,2.00
2019-01-30T10:47:59.129Z,2.00
2019-01-30T10:50:30.051Z,2.00
2019-01-30T10:52:58.538Z,2.10
2019-01-30T10:55:29.205Z,2.10
2019-01-30T10:57:59.407Z,2.20
2019-01-30T11:00:43.391Z,2.40
2019-01-30T11:03:11.819Z,2.40
2019-01-30T11:05:40.255Z,2.40
2019-01-30T11:08:08.808Z,2.40
2019-01-30T11:10:37.563Z,2.50
2019-01-30T11:13:06.725Z,2.40
2019-01-30T11:15:35.217Z,2.40
2019-01-30T11:18:05.499Z,2.40
2019-01-30T11:20:33.934Z,2.50
2019-01-30T11:23:02.332Z,2.40
2019-01-30T11:25:33.703Z,2.40
2019-01-30T11:28:02.151Z,2.50
2019-01-30T11:30:30.629Z,2.70
2019-01-30T11:32:59.057Z,2.70
2019-01-30T11:35:27.460Z,2.70
2019-01-30T11:37:55.877Z,2.70
2019-01-30T11:40:25.019Z,2.80
2019-01-30T11:42:53.462Z,2.90
2019-01-30T11:45:30.032Z,2.80
2019-01-30T11:47:58.934Z,2.80
2019-01-30T11:50:27.341Z,2.70
2019-01-30T11:52:56.092Z,2.70
2019-01-30T11:55:24.521Z,2.80
2019-01-30T11:57:52.941Z,2.80
2019-01-30T12:00:33.994Z,2.90
2019-01-30T12:03:02.700Z,2.90
2019-01-30T12:05:31.113Z,3.00
2019-01-30T12:07:59.880Z,3.00
2019-01-30T12:10:28.566Z,3.00
2019-01-30T12:12:56.976Z,3.00
2019-01-30T12:15:26.519Z,2.90
2019-01-30T12:17:54.920Z,2.90
2019-01-30T12:20:23.344Z,2.90
2019-01-30T12:22:51.749Z,2.90
2019-01-30T12:25:21.696Z,2.90
2019-01-30T12:27:50.955Z,3.00
2019-01-30T12:30:27.868Z,2.80
2019-01-30T12:32:56.277Z,2.90
2019-01-30T12:35:24.918Z,2.90
2019-01-30T12:37:53.383Z,2.90
2019-01-30T12:40:25.771Z,3.00
2019-01-30T12:42:54.499Z,3.00
2019-01-30T12:45:34.423Z,3.00
2019-01-30T12:48:02.848Z,3.10
2019-01-30T12:50:31.332Z,3.10
2019-01-30T12:52:59.910Z,3.20
2019-01-30T12:55:29.478Z,3.20
2019-01-30T12:57:59.487Z,3.20
2019-01-30T13:00:36.730Z,3.20
2019-01-30T13:03:05.488Z,3.30
2019-01-30T13:05:34.026Z,3.40
2019-01-30T13:08:02.424Z,3.40
2019-01-30T13:10:30.830Z,3.50
2019-01-30T13:12:59.212Z,3.60
2019-01-30T13:15:28.959Z,3.60
2019-01-30T13:17:57.905Z,3.50
2019-01-30T13:20:26.333Z,3.50
2019-01-30T13:22:54.720Z,3.50
2019-01-30T13:25:26.035Z,3.60
2019-01-30T13:27:54.450Z,3.60
2019-01-30T13:30:28.458Z,3.60
2019-01-30T13:32:56.848Z,3.70
2019-01-30T13:35:25.245Z,3.80
2019-01-30T13:37:53.649Z,3.70
2019-01-30T13:40:33.874Z,3.70
2019-01-30T13:43:02.641Z,3.70
2019-01-30T13:45:31.315Z,3.70
2019-01-30T13:48:00.091Z,3.80
2019-01-30T13:50:29.532Z,3.90
2019-01-30T13:52:58.100Z,3.80
2019-01-30T13:55:26.637Z,3.80
2019-01-30T13:57:55.313Z,3.70
2019-01-30T14:00:26.959Z,3.80
2019-01-30T14:02:55.424Z,3.80
2019-01-30T14:05:23.996Z,3.80
2019-01-30T14:07:52.482Z,3.80
2019-01-30T14:10:21.041Z,3.80
2019-01-30T14:12:49.465Z,3.80
2019-01-30T14:15:23.731Z,3.80
2019-01-30T14:17:52.130Z,3.80
2019-01-30T14:20:20.635Z,3.80
2019-01-30T14:22:49.117Z,3.80
2019-01-30T14:25:17.881Z,3.80
2019-01-30T14:27:46.285Z,3.80
2019-01-30T14:30:26.065Z,3.90
2019-01-30T14:32:54.511Z,3.90
2019-01-30T14:35:44.466Z,3.80
2019-01-30T14:38:12.862Z,3.80
2019-01-30T14:40:41.429Z,3.80
2019-01-30T14:43:09.955Z,3.80
2019-01-30T14:45:38.370Z,3.80
2019-01-30T14:48:06.818Z,3.80
2019-01-30T14:50:35.196Z,3.80
2019-01-30T14:53:03.648Z,3.70
2019-01-30T14:55:32.207Z,3.70
2019-01-30T14:58:00.683Z,3.70
2019-01-30T15:00:31.138Z,3.70
2019-01-30T15:02:59.608Z,3.60
2019-01-30T15:05:29.134Z,3.60
2019-01-30T15:07:57.629Z,3.70
2019-01-30T15:10:28.690Z,3.70
2019-01-30T15:12:57.127Z,3.60
2019-01-30T15:15:27.582Z,3.60
2019-01-30T15:17:56.003Z,3.50
2019-01-30T15:20:26.430Z,3.50
2019-01-30T15:22:55.371Z,3.40
2019-01-30T15:25:24.495Z,3.30
2019-01-30T15:27:53.187Z,3.20
2019-01-30T15:30:27.625Z,3.20
2019-01-30T15:32:56.012Z,3.20
2019-01-30T15:35:33.239Z,3.20
2019-01-30T15:37:54.536Z,3.10
2019-01-30T15:40:25.667Z,3.10
2019-01-30T15:42:54.068Z,3.10
2019-01-30T15:45:24.732Z,3.10
2019-01-30T15:47:53.144Z,3.10
2019-01-30T15:50:33.401Z,3.10
2019-01-30T15:53:01.945Z,3.10
2019-01-30T15:55:30.391Z,3.10
2019-01-30T15:58:01.665Z,3.00
2019-01-30T16:00:39.072Z,3.00
2019-01-30T16:03:07.561Z,3.00
2019-01-30T16:05:44.532Z,2.90
2019-01-30T16:08:06.225Z,2.90
2019-01-30T16:10:35.355Z,2.80
2019-01-30T16:13:04.142Z,2.80
2019-01-30T16:15:38.715Z,2.70
2019-01-30T16:18:07.457Z,2.80
2019-01-30T16:20:35.884Z,2.80
2019-01-30T16:23:05.033Z,2.80
2019-01-30T16:25:33.495Z,2.80
2019-01-30T16:28:01.910Z,2.80
2019-01-30T16:30:30.309Z,2.70
2019-01-30T16:32:58.699Z,2.70
2019-01-30T16:35:31.903Z,2.70
2019-01-30T16:38:00.503Z,2.70
2019-01-30T16:40:29.007Z,2.70
2019-01-30T16:42:57.426Z,2.70
2019-01-30T16:45:31.067Z,2.80
2019-01-30T16:47:59.756Z,2.70
2019-01-30T16:50:28.447Z,2.70
2019-01-30T16:52:56.861Z,2.70
2019-01-30T16:55:25.276Z,2.70
2019-01-30T16:57:53.779Z,2.70
2019-01-30T17:00:25.257Z,2.70
2019-01-30T17:02:54.024Z,2.70
2019-01-30T17:05:22.775Z,2.70
2019-01-30T17:07:51.199Z,2.70
2019-01-30T17:10:20.147Z,2.60
2019-01-30T17:12:48.559Z,2.60
2019-01-30T17:15:29.420Z,2.60
2019-01-30T17:17:57.816Z,2.70
2019-01-30T17:20:28.493Z,2.60
2019-01-30T17:22:56.906Z,2.70
2019-01-30T17:25:25.655Z,2.70
2019-01-30T17:27:54.129Z,2.70
2019-01-30T17:30:28.808Z,2.60
2019-01-30T17:32:57.214Z,2.60
2019-01-30T17:35:26.181Z,2.60
2019-01-30T17:37:54.585Z,2.70
2019-01-30T17:40:25.072Z,2.80
2019-01-30T17:42:53.561Z,2.80
2019-01-30T17:45:21.960Z,2.90
2019-01-30T17:47:50.816Z,2.90
2019-01-30T17:50:22.367Z,2.90
2019-01-30T17:52:50.783Z,2.90
2019-01-30T17:55:19.470Z,2.90
2019-01-30T17:57:47.949Z,3.00
2019-01-30T18:00:29.256Z,3.00
2019-01-30T18:02:57.660Z,2.90
2019-01-30T18:05:26.091Z,2.80
2019-01-30T18:07:54.500Z,2.70
2019-01-30T18:10:22.924Z,2.60
2019-01-30T18:12:51.338Z,2.60
2019-01-30T18:15:19.832Z,2.50
2019-01-30T18:17:48.331Z,2.50
2019-01-30T18:20:20.823Z,2.40
2019-01-30T18:22:49.245Z,2.40
2019-01-30T18:25:21.423Z,2.30
2019-01-30T18:27:50.215Z,2.10
2019-01-30T18:30:20.153Z,2.00
2019-01-30T18:32:48.756Z,2.00
2019-01-30T18:35:17.416Z,2.00
2019-01-30T18:37:45.989Z,1.90
2019-01-30T18:40:30.315Z,1.90
2019-01-30T18:42:58.720Z,1.90
2019-01-30T18:45:28.423Z,1.90
2019-01-30T18:47:56.950Z,1.80
2019-01-30T18:50:27.655Z,1.80
2019-01-30T18:52:56.131Z,1.80
2019-01-30T18:55:24.724Z,1.80
2019-01-30T18:57:53.375Z,1.80
2019-01-30T19:00:27.287Z,1.80
2019-01-30T19:02:57.649Z,1.80
2019-01-30T19:05:26.131Z,1.70
2019-01-30T19:07:54.575Z,1.70
2019-01-30T19:10:22.981Z,1.70
2019-01-30T19:12:51.802Z,1.60
2019-01-30T19:15:25.214Z,1.60
2019-01-30T19:17:53.895Z,1.60
2019-01-30T19:20:25.372Z,1.50
2019-01-30T19:22:53.899Z,1.50
2019-01-30T19:25:22.331Z,1.40
2019-01-30T19:27:50.757Z,1.50
2019-01-30T19:30:21.627Z,1.50
2019-01-30T19:32:50.386Z,1.40
2019-01-30T19:35:19.099Z,1.50
2019-01-30T19:37:47.510Z,1.50
2019-01-30T19:40:16.765Z,1.50
2019-01-30T19:42:45.178Z,1.50
2019-01-30T19:45:22.451Z,1.50
2019-01-30T19:47:50.872Z,1.50
2019-01-30T19:50:21.329Z,1.40
2019-01-30T19:52:49.896Z,1.40
2019-01-30T19:55:18.372Z,1.40
2019-01-30T19:57:46.844Z,1.50
2019-01-30T20:00:21.273Z,1.50
2019-01-30T20:02:50.520Z,1.50
2019-01-30T20:05:19.373Z,1.50
2019-01-30T20:07:47.773Z,1.60
2019-01-30T20:10:19.037Z,1.60
2019-01-30T20:12:47.439Z,1.60
2019-01-30T20:15:15.955Z,1.60
2019-01-30T20:17:44.643Z,1.70
2019-01-30T20:20:15.689Z,1.70
2019-01-30T20:22:44.247Z,1.70
2019-01-30T20:25:18.543Z,1.70
2019-01-30T20:27:47.284Z,1.70
2019-01-30T20:30:17.962Z,1.70
2019-01-30T20:32:46.513Z,1.70
2019-01-30T20:35:14.983Z,1.80
2019-01-30T20:37:43.395Z,1.80
2019-01-30T20:40:19.739Z,1.80
2019-01-30T20:42:48.167Z,1.80
2019-01-30T20:45:16.648Z,1.80
2019-01-30T20:47:45.071Z,1.80
2019-01-30T20:50:21.307Z,1.80
2019-01-30T20:52:49.719Z,1.70
2019-01-30T20:55:18.507Z,1.70
2019-01-30T20:57:47.167Z,1.70
2019-01-30T21:00:24.072Z,1.80
2019-01-30T21:02:52.568Z,1.90
2019-01-30T21:05:20.973Z,1.90
2019-01-30T21:07:49.427Z,1.90
2019-01-30T21:10:26.363Z,1.90
2019-01-30T21:12:54.781Z,1.90
2019-01-30T21:15:23.216Z,2.00
2019-01-30T21:17:51.621Z,2.00
2019-01-30T21:20:20.184Z,2.00
2019-01-30T21:22:48.604Z,2.10
2019-01-30T21:25:21.263Z,2.10
2019-01-30T21:27:50.004Z,2.00
2019-01-30T21:30:29.652Z,2.00
2019-01-30T21:32:58.131Z,2.00
2019-01-30T21:35:26.528Z,2.00
2019-01-30T21:37:54.941Z,2.10
2019-01-30T21:40:23.344Z,2.10
2019-01-30T21:42:51.787Z,2.00
2019-01-30T21:45:22.391Z,2.00
2019-01-30T21:47:51.481Z,2.00
2019-01-30T21:50:20.424Z,1.90
2019-01-30T21:52:48.903Z,1.90
2019-01-30T21:55:19.274Z,1.90
2019-01-30T21:57:47.802Z,1.90
2019-01-30T22:00:18.768Z,1.90
2019-01-30T22:02:47.251Z,2.00
2019-01-30T22:05:16.327Z,1.90
2019-01-30T22:07:44.756Z,2.00
2019-01-30T22:10:21.372Z,1.90
2019-01-30T22:12:49.812Z,2.00
2019-01-30T22:15:18.262Z,2.00
2019-01-30T22:17:47.069Z,2.00
2019-01-30T22:20:25.611Z,1.90
2019-01-30T22:22:54.462Z,1.90
2019-01-30T22:25:24.795Z,1.90
2019-01-30T22:27:53.203Z,1.90
2019-01-30T22:30:31.453Z,2.00
2019-01-30T22:32:59.933Z,2.10
2019-01-30T22:35:28.502Z,2.10
2019-01-30T22:37:56.916Z,2.00
2019-01-30T22:40:25.396Z,2.00
2019-01-30T22:42:53.808Z,2.10
2019-01-30T22:45:23.244Z,2.10
2019-01-30T22:47:51.734Z,2.10
2019-01-30T22:50:20.976Z,2.10
2019-01-30T22:52:49.636Z,2.10
2019-01-30T22:55:19.872Z,2.10
2019-01-30T22:57:50.798Z,2.20
2019-01-30T23:00:32.535Z,2.20
2019-01-30T23:03:01.292Z,2.20
2019-01-30T23:05:35.682Z,2.10
2019-01-30T23:08:04.955Z,2.10
2019-01-30T23:10:48.552Z,2.20
2019-01-30T23:13:23.248Z,2.20
2019-01-30T23:16:00.203Z,2.20
2019-01-30T23:18:56.063Z,2.20
2019-01-30T23:21:36.489Z,2.20
2019-01-30T23:24:13.708Z,2.30
2019-01-30T23:26:47.670Z,2.30
2019-01-30T23:29:24.928Z,2.20
2019-01-30T23:31:59.135Z,2.20
2019-01-30T23:34:33.148Z,2.20
2019-01-30T23:37:10.525Z,2.20
2019-01-30T23:39:44.901Z,2.20
2019-01-30T23:42:31.703Z,2.30
2019-01-30T23:45:33.751Z,2.20
2019-01-30T23:48:21.823Z,2.20
2019-01-30T23:50:56.116Z,2.30
2019-01-30T23:53:42.684Z,2.30
2019-01-30T23:56:28.451Z,2.40
2019-01-30T23:59:08.434Z,2.30
